sensor_id;sensor_type;location;lat;lon;timestamp;pressure;altitude;pressure_sealevel;temperature;humidity
69528;BME280;57136;51.986;4.468;2023-02-28T00:01:09;103307.06;;;2.29;100.00
69528;BME280;57136;51.986;4.468;2023-02-28T00:03:34;103311.44;;;2.30;100.00
69528;BME280;57136;51.986;4.468;2023-02-28T00:06:02;103307.47;;;2.33;100.00
69528;BME280;57136;51.986;4.468;2023-02-28T00:08:28;103307.31;;;2.32;100.00
69528;BME280;57136;51.986;4.468;2023-02-28T00:10:53;103311.16;;;2.37;100.00
69528;BME280;57136;51.986;4.468;2023-02-28T00:13:18;103311.06;;;2.35;100.00
69528;BME280;57136;51.986;4.468;2023-02-28T00:15:44;103308.47;;;2.35;100.00
69528;BME280;57136;51.986;4.468;2023-02-28T00:18:10;103318.59;;;2.44;100.00
69528;BME280;57136;51.986;4.468;2023-02-28T00:20:37;103322.19;;;2.46;100.00
69528;BME280;57136;51.986;4.468;2023-02-28T00:23:02;103316.16;;;2.58;100.00
69528;BME280;57136;51.986;4.468;2023-02-28T00:25:27;103314.75;;;2.61;100.00
69528;BME280;57136;51.986;4.468;2023-02-28T00:27:53;103323.34;;;2.62;100.00
69528;BME280;57136;51.986;4.468;2023-02-28T00:30:21;103317.56;;;2.64;100.00
69528;BME280;57136;51.986;4.468;2023-02-28T00:32:46;103324.56;;;2.77;100.00
69528;BME280;57136;51.986;4.468;2023-02-28T00:35:12;103317.59;;;2.76;100.00
69528;BME280;57136;51.986;4.468;2023-02-28T00:37:38;103325.53;;;2.79;100.00
69528;BME280;57136;51.986;4.468;2023-02-28T00:40:04;103334.41;;;2.83;100.00
69528;BME280;57136;51.986;4.468;2023-02-28T00:42:31;103317.94;;;2.81;100.00
69528;BME280;57136;51.986;4.468;2023-02-28T00:44:56;103316.38;;;2.83;100.00
69528;BME280;57136;51.986;4.468;2023-02-28T00:47:21;103320.00;;;2.97;100.00
69528;BME280;57136;51.986;4.468;2023-02-28T00:49:47;103320.59;;;3.05;100.00
69528;BME280;57136;51.986;4.468;2023-02-28T00:52:12;103318.47;;;3.11;100.00
69528;BME280;57136;51.986;4.468;2023-02-28T00:54:37;103313.56;;;3.14;100.00
69528;BME280;57136;51.986;4.468;2023-02-28T00:57:03;103312.00;;;3.16;100.00
69528;BME280;57136;51.986;4.468;2023-02-28T00:59:28;103294.19;;;3.19;100.00
69528;BME280;57136;51.986;4.468;2023-02-28T01:01:53;103304.28;;;3.16;100.00
69528;BME280;57136;51.986;4.468;2023-02-28T01:04:19;103306.28;;;3.20;100.00
69528;BME280;57136;51.986;4.468;2023-02-28T01:06:44;103314.13;;;3.22;100.00
69528;BME280;57136;51.986;4.468;2023-02-28T01:09:10;103314.69;;;3.29;100.00
69528;BME280;57136;51.986;4.468;2023-02-28T01:11:36;103317.94;;;3.27;100.00
69528;BME280;57136;51.986;4.468;2023-02-28T01:14:02;103323.44;;;3.32;100.00
69528;BME280;57136;51.986;4.468;2023-02-28T01:16:29;103317.72;;;3.36;99.97
69528;BME280;57136;51.986;4.468;2023-02-28T01:18:54;103326.78;;;3.19;100.00
69528;BME280;57136;51.986;4.468;2023-02-28T01:21:21;103323.09;;;3.27;100.00
69528;BME280;57136;51.986;4.468;2023-02-28T01:23:47;103314.91;;;3.33;100.00
69528;BME280;57136;51.986;4.468;2023-02-28T01:26:20;103311.47;;;3.44;99.98
69528;BME280;57136;51.986;4.468;2023-02-28T01:28:46;103324.22;;;3.42;100.00
69528;BME280;57136;51.986;4.468;2023-02-28T01:31:12;103316.94;;;3.37;100.00
69528;BME280;57136;51.986;4.468;2023-02-28T01:33:38;103313.25;;;3.33;100.00
69528;BME280;57136;51.986;4.468;2023-02-28T01:36:09;103307.88;;;3.42;100.00
69528;BME280;57136;51.986;4.468;2023-02-28T01:38:36;103319.06;;;3.42;100.00
69528;BME280;57136;51.986;4.468;2023-02-28T01:41:01;103312.69;;;3.49;99.80
69528;BME280;57136;51.986;4.468;2023-02-28T01:43:29;103310.34;;;3.52;99.51
69528;BME280;57136;51.986;4.468;2023-02-28T01:45:56;103308.53;;;3.51;99.72
69528;BME280;57136;51.986;4.468;2023-02-28T01:48:28;103308.34;;;3.48;99.65
69528;BME280;57136;51.986;4.468;2023-02-28T01:50:59;103309.69;;;3.43;100.00
69528;BME280;57136;51.986;4.468;2023-02-28T01:53:32;103306.31;;;3.56;99.36
69528;BME280;57136;51.986;4.468;2023-02-28T01:55:59;103300.94;;;3.41;99.66
69528;BME280;57136;51.986;4.468;2023-02-28T01:58:25;103290.50;;;3.51;99.48
69528;BME280;57136;51.986;4.468;2023-02-28T02:00:50;103295.53;;;3.62;98.83
69528;BME280;57136;51.986;4.468;2023-02-28T02:03:18;103290.38;;;3.62;98.88
69528;BME280;57136;51.986;4.468;2023-02-28T02:05:45;103286.16;;;3.62;99.59
69528;BME280;57136;51.986;4.468;2023-02-28T02:08:17;103290.38;;;3.62;99.45
69528;BME280;57136;51.986;4.468;2023-02-28T02:10:46;103290.72;;;3.66;99.29
69528;BME280;57136;51.986;4.468;2023-02-28T02:39:13;103257.88;;;3.40;100.00
69528;BME280;57136;51.986;4.468;2023-02-28T02:41:48;103267.06;;;3.36;100.00
69528;BME280;57136;51.986;4.468;2023-02-28T02:44:25;103264.50;;;3.48;100.00
69528;BME280;57136;51.986;4.468;2023-02-28T02:47:01;103259.00;;;3.55;100.00
69528;BME280;57136;51.986;4.468;2023-02-28T02:49:31;103258.66;;;3.63;100.00
69528;BME280;57136;51.986;4.468;2023-02-28T02:52:02;103255.38;;;3.65;100.00
69528;BME280;57136;51.986;4.468;2023-02-28T02:54:30;103258.66;;;3.63;100.00
69528;BME280;57136;51.986;4.468;2023-02-28T02:57:01;103261.47;;;3.66;100.00
69528;BME280;57136;51.986;4.468;2023-02-28T02:59:29;103266.72;;;3.55;100.00
69528;BME280;57136;51.986;4.468;2023-02-28T03:01:58;103261.13;;;3.61;100.00
69528;BME280;57136;51.986;4.468;2023-02-28T03:04:27;103257.19;;;3.66;100.00
69528;BME280;57136;51.986;4.468;2023-02-28T03:06:55;103267.06;;;3.72;100.00
69528;BME280;57136;51.986;4.468;2023-02-28T03:09:25;103258.41;;;3.83;100.00
69528;BME280;57136;51.986;4.468;2023-02-28T03:11:52;103264.91;;;3.90;100.00
69528;BME280;57136;51.986;4.468;2023-02-28T03:20:05;103277.22;;;3.94;100.00
69528;BME280;57136;51.986;4.468;2023-02-28T03:22:37;103274.84;;;3.97;100.00
69528;BME280;57136;51.986;4.468;2023-02-28T03:25:12;103277.69;;;3.88;100.00
69528;BME280;57136;51.986;4.468;2023-02-28T03:30:27;103284.75;;;4.03;100.00
69528;BME280;57136;51.986;4.468;2023-02-28T03:35:59;103286.31;;;4.01;100.00
69528;BME280;57136;51.986;4.468;2023-02-28T03:38:34;103278.88;;;4.05;100.00
69528;BME280;57136;51.986;4.468;2023-02-28T03:41:14;103279.44;;;4.01;100.00
69528;BME280;57136;51.986;4.468;2023-02-28T03:43:45;103284.53;;;4.00;100.00
69528;BME280;57136;51.986;4.468;2023-02-28T03:46:15;103279.34;;;4.00;100.00
69528;BME280;57136;51.986;4.468;2023-02-28T03:48:45;103276.66;;;3.98;100.00
69528;BME280;57136;51.986;4.468;2023-02-28T03:51:16;103278.88;;;4.05;100.00
69528;BME280;57136;51.986;4.468;2023-02-28T03:53:56;103266.78;;;4.04;100.00
69528;BME280;57136;51.986;4.468;2023-02-28T03:56:29;103269.78;;;4.11;100.00
69528;BME280;57136;51.986;4.468;2023-02-28T03:59:07;103277.19;;;4.06;100.00
69528;BME280;57136;51.986;4.468;2023-02-28T04:01:38;103264.50;;;4.09;100.00
69528;BME280;57136;51.986;4.468;2023-02-28T04:04:06;103269.44;;;4.06;100.00
69528;BME280;57136;51.986;4.468;2023-02-28T04:06:33;103263.63;;;4.09;100.00
69528;BME280;57136;51.986;4.468;2023-02-28T04:08:58;103261.03;;;4.09;100.00
69528;BME280;57136;51.986;4.468;2023-02-28T04:11:36;103260.91;;;4.07;100.00
69528;BME280;57136;51.986;4.468;2023-02-28T04:14:03;103266.69;;;4.03;100.00
69528;BME280;57136;51.986;4.468;2023-02-28T04:16:30;103267.13;;;3.97;100.00
69528;BME280;57136;51.986;4.468;2023-02-28T04:18:55;103265.22;;;3.95;100.00
69528;BME280;57136;51.986;4.468;2023-02-28T04:21:31;103277.09;;;4.04;100.00
69528;BME280;57136;51.986;4.468;2023-02-28T04:23:57;103277.56;;;3.99;100.00
69528;BME280;57136;51.986;4.468;2023-02-28T04:26:35;103275.88;;;3.99;100.00
69528;BME280;57136;51.986;4.468;2023-02-28T04:29:05;103279.59;;;4.03;100.00
69528;BME280;57136;51.986;4.468;2023-02-28T04:31:31;103279.34;;;4.00;100.00
69528;BME280;57136;51.986;4.468;2023-02-28T04:33:56;103278.34;;;3.98;100.00
69528;BME280;57136;51.986;4.468;2023-02-28T04:36:22;103282.72;;;3.99;100.00
69528;BME280;57136;51.986;4.468;2023-02-28T04:38:48;103286.75;;;3.95;100.00
69528;BME280;57136;51.986;4.468;2023-02-28T04:41:14;103274.84;;;3.97;100.00
69528;BME280;57136;51.986;4.468;2023-02-28T04:43:42;103283.31;;;3.83;100.00
69528;BME280;57136;51.986;4.468;2023-02-28T04:46:08;103280.50;;;3.92;100.00
69528;BME280;57136;51.986;4.468;2023-02-28T04:48:36;103282.06;;;3.89;100.00
69528;BME280;57136;51.986;4.468;2023-02-28T04:53:28;103282.38;;;3.94;100.00
69528;BME280;57136;51.986;4.468;2023-02-28T04:55:55;103290.03;;;3.81;100.00
69528;BME280;57136;51.986;4.468;2023-02-28T04:58:20;103289.25;;;3.82;100.00
69528;BME280;57136;51.986;4.468;2023-02-28T05:00:48;103287.69;;;3.72;100.00
69528;BME280;57136;51.986;4.468;2023-02-28T05:03:13;103290.13;;;3.82;100.00
69528;BME280;57136;51.986;4.468;2023-02-28T05:05:38;103292.94;;;3.85;100.00
69528;BME280;57136;51.986;4.468;2023-02-28T05:08:04;103290.81;;;3.92;100.00
69528;BME280;57136;51.986;4.468;2023-02-28T05:10:30;103293.19;;;3.77;100.00
69528;BME280;57136;51.986;4.468;2023-02-28T05:12:56;103297.22;;;3.73;100.00
69528;BME280;57136;51.986;4.468;2023-02-28T05:15:21;103297.31;;;3.74;100.00
69528;BME280;57136;51.986;4.468;2023-02-28T05:17:46;103297.56;;;3.54;100.00
69528;BME280;57136;51.986;4.468;2023-02-28T05:20:12;103296.00;;;3.68;100.00
69528;BME280;57136;51.986;4.468;2023-02-28T05:22:39;103286.69;;;3.58;100.00
69528;BME280;57136;51.986;4.468;2023-02-28T05:25:05;103292.75;;;3.47;100.00
69528;BME280;57136;51.986;4.468;2023-02-28T05:27:31;103295.78;;;3.65;99.97
69528;BME280;57136;51.986;4.468;2023-02-28T05:29:56;103294.66;;;3.61;99.29
69528;BME280;57136;51.986;4.468;2023-02-28T05:32:22;103294.06;;;3.65;98.72
69528;BME280;57136;51.986;4.468;2023-02-28T05:34:47;103293.63;;;3.83;97.54
69528;BME280;57136;51.986;4.468;2023-02-28T05:37:14;103295.53;;;3.73;97.34
69528;BME280;57136;51.986;4.468;2023-02-28T05:39:40;103294.75;;;3.74;96.82
69528;BME280;57136;51.986;4.468;2023-02-28T05:42:06;103294.41;;;3.82;96.23
69528;BME280;57136;51.986;4.468;2023-02-28T05:44:31;103295.09;;;3.55;96.55
69528;BME280;57136;51.986;4.468;2023-02-28T05:46:57;103296.44;;;3.50;96.42
69528;BME280;57136;51.986;4.468;2023-02-28T05:49:22;103296.53;;;3.75;96.18
69528;BME280;57136;51.986;4.468;2023-02-28T05:51:47;103298.66;;;3.69;95.68
69528;BME280;57136;51.986;4.468;2023-02-28T05:54:13;103297.09;;;3.83;95.35
69528;BME280;57136;51.986;4.468;2023-02-28T05:56:38;103298.31;;;3.88;94.80
69528;BME280;57136;51.986;4.468;2023-02-28T05:59:05;103291.06;;;3.83;95.31
69528;BME280;57136;51.986;4.468;2023-02-28T06:01:36;103291.94;;;3.71;95.91
69528;BME280;57136;51.986;4.468;2023-02-28T06:04:04;103281.75;;;3.73;95.95
69528;BME280;57136;51.986;4.468;2023-02-28T06:06:30;103291.63;;;3.67;96.24
69528;BME280;57136;51.986;4.468;2023-02-28T06:08:55;103281.19;;;3.65;96.44
69528;BME280;57136;51.986;4.468;2023-02-28T06:11:21;103290.84;;;3.68;96.92
69528;BME280;57136;51.986;4.468;2023-02-28T06:13:47;103281.66;;;3.48;97.60
69528;BME280;57136;51.986;4.468;2023-02-28T06:16:12;103287.72;;;3.60;97.92
69528;BME280;57136;51.986;4.468;2023-02-28T06:18:38;103286.13;;;3.50;97.59
69528;BME280;57136;51.986;4.468;2023-02-28T06:21:03;103285.56;;;3.30;98.97
69528;BME280;57136;51.986;4.468;2023-02-28T06:23:29;103278.38;;;3.26;99.65
69528;BME280;57136;51.986;4.468;2023-02-28T06:25:55;103283.44;;;3.25;99.15
69528;BME280;57136;51.986;4.468;2023-02-28T06:28:24;103293.19;;;3.17;98.76
69528;BME280;57136;51.986;4.468;2023-02-28T06:30:49;103292.16;;;3.03;98.79
69528;BME280;57136;51.986;4.468;2023-02-28T06:33:14;103292.59;;;3.21;97.57
69528;BME280;57136;51.986;4.468;2023-02-28T06:35:42;103296.16;;;3.11;97.87
69528;BME280;57136;51.986;4.468;2023-02-28T06:38:08;103303.22;;;3.02;97.58
69528;BME280;57136;51.986;4.468;2023-02-28T06:40:33;103314.25;;;2.77;97.39
69528;BME280;57136;51.986;4.468;2023-02-28T06:43:01;103304.78;;;2.66;98.05
69528;BME280;57136;51.986;4.468;2023-02-28T06:45:26;103306.09;;;2.83;97.27
69528;BME280;57136;51.986;4.468;2023-02-28T06:47:52;103304.00;;;2.89;95.54
69528;BME280;57136;51.986;4.468;2023-02-28T06:50:18;103307.50;;;2.79;96.45
69528;BME280;57136;51.986;4.468;2023-02-28T06:52:46;103313.09;;;2.74;97.47
69528;BME280;57136;51.986;4.468;2023-02-28T06:55:12;103308.63;;;2.71;97.21
69528;BME280;57136;51.986;4.468;2023-02-28T06:57:38;103308.59;;;2.59;96.16
69528;BME280;57136;51.986;4.468;2023-02-28T07:00:08;103321.66;;;2.50;96.18
69528;BME280;57136;51.986;4.468;2023-02-28T07:02:35;103328.78;;;2.54;95.87
69528;BME280;57136;51.986;4.468;2023-02-28T07:05:01;103325.81;;;2.38;96.25
69528;BME280;57136;51.986;4.468;2023-02-28T07:07:26;103323.78;;;2.34;97.24
69528;BME280;57136;51.986;4.468;2023-02-28T07:09:51;103333.97;;;2.32;98.57
69528;BME280;57136;51.986;4.468;2023-02-28T07:12:17;103330.63;;;2.33;98.60
69528;BME280;57136;51.986;4.468;2023-02-28T07:14:42;103344.50;;;2.35;99.97
69528;BME280;57136;51.986;4.468;2023-02-28T07:17:08;103340.47;;;2.17;100.00
69528;BME280;57136;51.986;4.468;2023-02-28T07:19:35;103349.41;;;2.00;100.00
69528;BME280;57136;51.986;4.468;2023-02-28T07:22:01;103344.25;;;2.00;100.00
69528;BME280;57136;51.986;4.468;2023-02-28T07:24:28;103335.91;;;2.02;100.00
69528;BME280;57136;51.986;4.468;2023-02-28T07:26:54;103347.59;;;1.99;100.00
69528;BME280;57136;51.986;4.468;2023-02-28T07:29:20;103347.50;;;1.87;100.00
69528;BME280;57136;51.986;4.468;2023-02-28T07:31:45;103348.34;;;1.75;100.00
69528;BME280;57136;51.986;4.468;2023-02-28T07:34:12;103348.44;;;1.77;100.00
69528;BME280;57136;51.986;4.468;2023-02-28T07:36:37;103346.03;;;1.68;100.00
69528;BME280;57136;51.986;4.468;2023-02-28T07:39:03;103342.31;;;1.64;100.00
69528;BME280;57136;51.986;4.468;2023-02-28T07:41:29;103356.47;;;1.59;100.00
69528;BME280;57136;51.986;4.468;2023-02-28T07:43:58;103343.88;;;1.62;100.00
69528;BME280;57136;51.986;4.468;2023-02-28T07:46:25;103340.78;;;1.56;100.00
69528;BME280;57136;51.986;4.468;2023-02-28T07:48:51;103345.94;;;1.56;100.00
69528;BME280;57136;51.986;4.468;2023-02-28T07:51:18;103354.41;;;1.55;100.00
69528;BME280;57136;51.986;4.468;2023-02-28T07:53:43;103353.75;;;1.58;100.00
69528;BME280;57136;51.986;4.468;2023-02-28T07:56:09;103357.59;;;1.63;100.00
69528;BME280;57136;51.986;4.468;2023-02-28T07:58:35;103359.28;;;1.52;100.00
69528;BME280;57136;51.986;4.468;2023-02-28T08:01:08;103368.53;;;1.40;100.00
69528;BME280;57136;51.986;4.468;2023-02-28T08:03:34;103348.25;;;1.43;100.00
69528;BME280;57136;51.986;4.468;2023-02-28T08:06:01;103365.97;;;1.40;100.00
69528;BME280;57136;51.986;4.468;2023-02-28T08:08:27;103357.38;;;1.39;100.00
69528;BME280;57136;51.986;4.468;2023-02-28T08:10:58;103355.59;;;1.48;100.00
69528;BME280;57136;51.986;4.468;2023-02-28T08:13:23;103358.00;;;1.57;100.00
69528;BME280;57136;51.986;4.468;2023-02-28T08:15:49;103359.28;;;1.52;100.00
69528;BME280;57136;51.986;4.468;2023-02-28T08:18:14;103358.53;;;1.53;100.00
69528;BME280;57136;51.986;4.468;2023-02-28T08:20:40;103367.63;;;1.60;100.00
69528;BME280;57136;51.986;4.468;2023-02-28T08:23:05;103364.78;;;1.67;100.00
69528;BME280;57136;51.986;4.468;2023-02-28T08:25:30;103366.34;;;1.75;100.00
69528;BME280;57136;51.986;4.468;2023-02-28T08:27:56;103362.31;;;1.79;100.00
69528;BME280;57136;51.986;4.468;2023-02-28T08:30:21;103366.59;;;1.78;100.00
69528;BME280;57136;51.986;4.468;2023-02-28T08:32:46;103365.41;;;1.85;100.00
69528;BME280;57136;51.986;4.468;2023-02-28T08:35:12;103348.94;;;1.93;100.00
69528;BME280;57136;51.986;4.468;2023-02-28T08:37:37;103352.19;;;2.13;100.00
69528;BME280;57136;51.986;4.468;2023-02-28T08:40:06;103356.38;;;2.23;100.00
69528;BME280;57136;51.986;4.468;2023-02-28T08:42:32;103353.09;;;2.36;100.00
69528;BME280;57136;51.986;4.468;2023-02-28T08:44:57;103357.44;;;2.47;100.00
69528;BME280;57136;51.986;4.468;2023-02-28T08:47:22;103359.69;;;2.32;100.00
69528;BME280;57136;51.986;4.468;2023-02-28T08:49:48;103347.47;;;2.30;100.00
69528;BME280;57136;51.986;4.468;2023-02-28T08:52:13;103345.03;;;2.31;100.00
69528;BME280;57136;51.986;4.468;2023-02-28T08:54:40;103341.50;;;2.41;100.00
69528;BME280;57136;51.986;4.468;2023-02-28T08:57:05;103337.97;;;2.51;100.00
69528;BME280;57136;51.986;4.468;2023-02-28T08:59:31;103343.41;;;2.66;100.00
69528;BME280;57136;51.986;4.468;2023-02-28T09:01:57;103339.28;;;2.68;100.00
69528;BME280;57136;51.986;4.468;2023-02-28T09:04:22;103333.94;;;2.54;100.00
69528;BME280;57136;51.986;4.468;2023-02-28T09:06:48;103341.81;;;2.78;100.00
69528;BME280;57136;51.986;4.468;2023-02-28T09:09:14;103335.53;;;2.87;100.00
69528;BME280;57136;51.986;4.468;2023-02-28T09:11:39;103334.78;;;2.99;100.00
69528;BME280;57136;51.986;4.468;2023-02-28T09:14:05;103338.03;;;2.97;100.00
69528;BME280;57136;51.986;4.468;2023-02-28T09:16:33;103332.91;;;3.09;100.00
69528;BME280;57136;51.986;4.468;2023-02-28T09:18:59;103341.91;;;3.14;100.00
69528;BME280;57136;51.986;4.468;2023-02-28T09:21:25;103338.47;;;2.91;100.00
69528;BME280;57136;51.986;4.468;2023-02-28T09:23:50;103351.16;;;3.00;100.00
69528;BME280;57136;51.986;4.468;2023-02-28T09:26:20;103344.31;;;3.00;100.00
69528;BME280;57136;51.986;4.468;2023-02-28T09:28:47;103337.16;;;3.08;100.00
69528;BME280;57136;51.986;4.468;2023-02-28T09:31:18;103346.47;;;3.06;100.00
69528;BME280;57136;51.986;4.468;2023-02-28T09:33:50;103345.56;;;3.06;100.00
69528;BME280;57136;51.986;4.468;2023-02-28T09:36:16;103348.00;;;2.92;100.00
69528;BME280;57136;51.986;4.468;2023-02-28T09:38:41;103347.38;;;3.07;100.00
69528;BME280;57136;51.986;4.468;2023-02-28T09:41:22;103348.06;;;3.16;100.00
69528;BME280;57136;51.986;4.468;2023-02-28T09:43:59;103349.47;;;3.00;100.00
69528;BME280;57136;51.986;4.468;2023-02-28T09:46:37;103347.91;;;3.03;100.00
69528;BME280;57136;51.986;4.468;2023-02-28T09:49:15;103340.03;;;2.89;100.00
69528;BME280;57136;51.986;4.468;2023-02-28T09:51:59;103347.28;;;3.17;100.00
69528;BME280;57136;51.986;4.468;2023-02-28T09:54:28;103331.84;;;3.29;100.00
69528;BME280;57136;51.986;4.468;2023-02-28T10:04:58;103353.06;;;3.72;100.00
69528;BME280;57136;51.986;4.468;2023-02-28T10:09:57;103356.31;;;3.46;100.00
69528;BME280;57136;51.986;4.468;2023-02-28T10:12:26;103356.75;;;3.52;100.00
69528;BME280;57136;51.986;4.468;2023-02-28T10:14:54;103345.88;;;3.68;100.00
69528;BME280;57136;51.986;4.468;2023-02-28T10:17:23;103347.66;;;3.69;100.00
69528;BME280;57136;51.986;4.468;2023-02-28T10:20:07;103354.97;;;3.99;100.00
69528;BME280;57136;51.986;4.468;2023-02-28T10:23:00;103355.63;;;3.96;100.00
69528;BME280;57136;51.986;4.468;2023-02-28T10:25:33;103357.44;;;3.50;97.98
69528;BME280;57136;51.986;4.468;2023-02-28T10:28:08;103354.16;;;3.40;95.81
69528;BME280;57136;51.986;4.468;2023-02-28T10:30:36;103356.41;;;3.95;95.61
69528;BME280;57136;51.986;4.468;2023-02-28T10:33:02;103343.97;;;4.01;93.47
69528;BME280;57136;51.986;4.468;2023-02-28T10:35:28;103344.75;;;4.00;93.89
69528;BME280;57136;51.986;4.468;2023-02-28T10:37:58;103351.34;;;4.09;92.43
69528;BME280;57136;51.986;4.468;2023-02-28T10:45:28;103352.44;;;4.24;89.62
69528;BME280;57136;51.986;4.468;2023-02-28T10:48:06;103347.78;;;4.07;88.96
69528;BME280;57136;51.986;4.468;2023-02-28T10:56:12;103350.09;;;4.64;85.78
69528;BME280;57136;51.986;4.468;2023-02-28T11:01:38;103329.44;;;5.42;82.57
69528;BME280;57136;51.986;4.468;2023-02-28T11:07:33;103325.34;;;6.13;78.53
69528;BME280;57136;51.986;4.468;2023-02-28T11:09:35;103330.91;;;6.19;73.88
69528;BME280;57136;51.986;4.468;2023-02-28T11:12:04;103336.34;;;6.66;75.35
69528;BME280;57136;51.986;4.468;2023-02-28T11:14:36;103328.38;;;7.06;71.70
69528;BME280;57136;51.986;4.468;2023-02-28T11:17:34;103334.81;;;5.99;66.67
69528;BME280;57136;51.986;4.468;2023-02-28T11:20:02;103331.03;;;5.80;71.14
69528;BME280;57136;51.986;4.468;2023-02-28T11:22:31;103329.81;;;6.15;70.69
69528;BME280;57136;51.986;4.468;2023-02-28T11:25:07;103316.13;;;7.03;70.78
69528;BME280;57136;51.986;4.468;2023-02-28T11:30:02;103328.34;;;6.19;66.31
69528;BME280;57136;51.986;4.468;2023-02-28T11:32:30;103326.56;;;6.90;67.28
69528;BME280;57136;51.986;4.468;2023-02-28T11:37:38;103315.03;;;7.60;56.05
69528;BME280;57136;51.986;4.468;2023-02-28T11:40:20;103307.56;;;8.46;54.60
69528;BME280;57136;51.986;4.468;2023-02-28T11:43:01;103303.88;;;7.77;53.21
69528;BME280;57136;51.986;4.468;2023-02-28T11:51:22;103301.97;;;5.84;52.75
69528;BME280;57136;51.986;4.468;2023-02-28T11:54:20;103310.91;;;6.17;54.56
69528;BME280;57136;51.986;4.468;2023-02-28T11:56:55;103297.59;;;7.27;50.93
69528;BME280;57136;51.986;4.468;2023-02-28T12:07:46;103280.53;;;6.42;47.52
69528;BME280;57136;51.986;4.468;2023-02-28T12:13:07;103283.47;;;6.34;48.13
69528;BME280;57136;51.986;4.468;2023-02-28T12:16:03;103280.16;;;6.80;46.39
69528;BME280;57136;51.986;4.468;2023-02-28T12:28:53;103264.22;;;8.45;44.87
69528;BME280;57136;51.986;4.468;2023-02-28T12:31:29;103262.31;;;8.42;44.55
69528;BME280;57136;51.986;4.468;2023-02-28T12:34:00;103265.28;;;8.32;44.05
69528;BME280;57136;51.986;4.468;2023-02-28T12:36:29;103262.63;;;9.34;42.62
69528;BME280;57136;51.986;4.468;2023-02-28T12:39:09;103262.94;;;9.58;41.53
69528;BME280;57136;51.986;4.468;2023-02-28T12:41:51;103265.94;;;9.68;39.67
69528;BME280;57136;51.986;4.468;2023-02-28T12:46:59;103261.81;;;9.35;41.09
69528;BME280;57136;51.986;4.468;2023-02-28T12:49:40;103255.28;;;9.25;41.08
69528;BME280;57136;51.986;4.468;2023-02-28T12:52:08;103250.28;;;9.86;40.72
69528;BME280;57136;51.986;4.468;2023-02-28T12:57:18;103244.88;;;10.79;38.79
69528;BME280;57136;51.986;4.468;2023-02-28T12:59:57;103237.59;;;10.51;36.66
69528;BME280;57136;51.986;4.468;2023-02-28T13:08:11;103238.78;;;9.63;39.05
69528;BME280;57136;51.986;4.468;2023-02-28T13:10:49;103230.59;;;9.73;37.21
69528;BME280;57136;51.986;4.468;2023-02-28T13:13:22;103223.69;;;9.18;37.94
69528;BME280;57136;51.986;4.468;2023-02-28T13:16:07;103222.09;;;9.57;38.00
69528;BME280;57136;51.986;4.468;2023-02-28T13:18:43;103228.31;;;9.61;38.14
69528;BME280;57136;51.986;4.468;2023-02-28T13:21:22;103219.97;;;9.12;38.61
69528;BME280;57136;51.986;4.468;2023-02-28T13:26:21;103215.50;;;9.66;38.25
69528;BME280;57136;51.986;4.468;2023-02-28T13:29:00;103216.28;;;9.63;38.74
69528;BME280;57136;51.986;4.468;2023-02-28T13:31:26;103212.09;;;8.76;39.08
69528;BME280;57136;51.986;4.468;2023-02-28T13:36:25;103206.56;;;8.19;39.57
69528;BME280;57136;51.986;4.468;2023-02-28T13:38:56;103207.13;;;8.13;38.77
69528;BME280;57136;51.986;4.468;2023-02-28T13:46:32;103203.53;;;9.32;38.38
69528;BME280;57136;51.986;4.468;2023-02-28T13:49:18;103197.47;;;8.44;39.59
69528;BME280;57136;51.986;4.468;2023-02-28T13:51:48;103201.72;;;7.92;40.55
69528;BME280;57136;51.986;4.468;2023-02-28T13:59:53;103197.13;;;9.25;39.07
69528;BME280;57136;51.986;4.468;2023-02-28T14:05:17;103184.59;;;9.54;36.86
69528;BME280;57136;51.986;4.468;2023-02-28T14:07:47;103181.13;;;9.35;37.37
69528;BME280;57136;51.986;4.468;2023-02-28T14:10:46;103180.97;;;8.60;39.71
69528;BME280;57136;51.986;4.468;2023-02-28T14:16:10;103177.47;;;8.43;38.95
69528;BME280;57136;51.986;4.468;2023-02-28T14:18:41;103171.19;;;9.64;38.37
69528;BME280;57136;51.986;4.468;2023-02-28T14:21:16;103167.31;;;10.34;37.36
69528;BME280;57136;51.986;4.468;2023-02-28T14:23:55;103168.75;;;9.11;38.43
69528;BME280;57136;51.986;4.468;2023-02-28T14:26:52;103165.56;;;8.30;39.36
69528;BME280;57136;51.986;4.468;2023-02-28T14:35:23;103158.00;;;8.34;41.49
69528;BME280;57136;51.986;4.468;2023-02-28T14:37:53;103160.69;;;8.36;41.22
69528;BME280;57136;51.986;4.468;2023-02-28T14:43:01;103169.22;;;8.50;41.02
69528;BME280;57136;51.986;4.468;2023-02-28T14:45:32;103165.94;;;8.89;40.46
69528;BME280;57136;51.986;4.468;2023-02-28T14:48:00;103164.81;;;9.20;40.67
69528;BME280;57136;51.986;4.468;2023-02-28T14:50:30;103167.63;;;9.06;39.19
69528;BME280;57136;51.986;4.468;2023-02-28T14:52:57;103168.63;;;8.39;39.22
69528;BME280;57136;51.986;4.468;2023-02-28T14:55:28;103153.53;;;8.48;39.29
69528;BME280;57136;51.986;4.468;2023-02-28T14:58:03;103161.97;;;9.15;39.40
69528;BME280;57136;51.986;4.468;2023-02-28T15:00:33;103159.00;;;8.89;38.85
69528;BME280;57136;51.986;4.468;2023-02-28T15:03:00;103162.78;;;8.96;38.27
69528;BME280;57136;51.986;4.468;2023-02-28T15:10:35;103161.59;;;8.89;37.50
69528;BME280;57136;51.986;4.468;2023-02-28T15:13:12;103158.84;;;8.86;37.21
69528;BME280;57136;51.986;4.468;2023-02-28T15:16:00;103161.25;;;8.81;36.82
69528;BME280;57136;51.986;4.468;2023-02-28T15:21:26;103159.78;;;8.52;38.62
69528;BME280;57136;51.986;4.468;2023-02-28T15:23:57;103163.75;;;8.45;37.29
69528;BME280;57136;51.986;4.468;2023-02-28T15:26:31;103158.63;;;8.63;38.18
69528;BME280;57136;51.986;4.468;2023-02-28T15:29:21;103156.38;;;8.71;38.90
69528;BME280;57136;51.986;4.468;2023-02-28T15:31:49;103161.16;;;8.80;37.95
69528;BME280;57136;51.986;4.468;2023-02-28T15:34:36;103164.75;;;7.48;39.15